Time;durP1;ratioP1;P1;durP2;ratioP2;P2;SDS_P1;SDS_P2;PMS_P1;PMS_P2;Temp;Humidity;BMP_temperature;BMP_pressure;BME280_temperature;BME280_humidity;BME280_pressure;Samples;Min_cycle;Max_cycle;Signal;HPM_P1;HPM_P2
2020/12/28 00:01:29;;;;;;;3.30;2.10;;;11.60;39.30;;;;;;5039335;28;20486;-84
2020/12/28 00:03:56;;;;;;;2.70;2.13;;;10.60;40.60;;;;;;5039519;28;20425;-84
2020/12/28 00:06:23;;;;;;;2.00;1.90;;;10.50;42.60;;;;;;5039036;28;20462;-84
2020/12/28 00:08:50;;;;;;;2.33;2.20;;;10.50;42.10;;;;;;5039084;28;20458;-84
2020/12/28 00:11:18;;;;;;;3.57;2.20;;;10.70;43.20;;;;;;5039469;28;20454;-84
2020/12/28 00:13:44;;;;;;;2.37;2.10;;;10.60;40.40;;;;;;5041475;28;20452;-84
2020/12/28 00:16:12;;;;;;;2.13;2.00;;;10.40;41.60;;;;;;5042351;28;20450;-83
2020/12/28 00:18:39;;;;;;;2.70;2.30;;;10.90;42.70;;;;;;5039622;28;20479;-83
2020/12/28 00:21:06;;;;;;;5.90;2.43;;;11.20;43.20;;;;;;5040124;28;20481;-83
2020/12/28 00:23:33;;;;;;;2.43;2.03;;;11.00;41.70;;;;;;5040039;28;20472;-83
2020/12/28 00:26:00;;;;;;;2.33;2.10;;;10.80;42.30;;;;;;5038373;28;20437;-83
2020/12/28 00:28:26;;;;;;;2.20;2.00;;;11.00;42.00;;;;;;5038592;28;20527;-83
2020/12/28 00:30:53;;;;;;;2.20;2.10;;;10.70;43.60;;;;;;5041141;28;20456;-83
2020/12/28 00:33:19;;;;;;;2.50;2.30;;;10.30;44.30;;;;;;5042402;28;20485;-83
2020/12/28 00:35:46;;;;;;;2.33;2.20;;;10.10;43.10;;;;;;5043488;28;20455;-83
2020/12/28 00:38:12;;;;;;;3.00;2.50;;;10.10;44.10;;;;;;5041280;28;20519;-83
2020/12/28 00:40:40;;;;;;;2.27;2.07;;;10.20;44.90;;;;;;5042277;28;20475;-83
2020/12/28 00:43:06;;;;;;;2.10;2.00;;;10.20;43.60;;;;;;5043674;28;20449;-83
2020/12/28 00:45:34;;;;;;;2.23;2.03;;;9.90;47.60;;;;;;5039558;28;20824;-83
2020/12/28 00:48:01;;;;;;;5.00;2.23;;;9.50;46.50;;;;;;5038899;28;20484;-83
2020/12/28 00:50:27;;;;;;;2.30;2.10;;;9.30;46.60;;;;;;5040043;28;20445;-83
2020/12/28 00:52:54;;;;;;;2.07;1.93;;;9.50;46.00;;;;;;5039532;28;20454;-83
2020/12/28 00:55:20;;;;;;;2.27;2.07;;;9.40;46.30;;;;;;5039174;28;20540;-83
2020/12/28 00:57:47;;;;;;;2.03;1.93;;;9.70;46.10;;;;;;5038009;28;20564;-83
2020/12/28 01:00:14;;;;;;;1.97;1.90;;;9.90;45.50;;;;;;5037796;28;20513;-83
2020/12/28 01:02:40;;;;;;;2.20;2.00;;;10.30;45.10;;;;;;5037731;28;20485;-83
2020/12/28 01:05:07;;;;;;;2.60;2.40;;;10.80;45.10;;;;;;5037524;28;20471;-83
2020/12/28 01:07:33;;;;;;;2.27;2.07;;;10.60;43.80;;;;;;5038096;28;20479;-83
2020/12/28 01:10:00;;;;;;;2.00;1.93;;;10.70;43.10;;;;;;5038247;28;20429;-83
2020/12/28 01:12:26;;;;;;;2.23;2.03;;;10.20;44.50;;;;;;5038980;28;20453;-83
2020/12/28 01:14:54;;;;;;;2.87;1.97;;;10.30;46.20;;;;;;5038364;28;20484;-83
2020/12/28 01:17:20;;;;;;;2.70;2.07;;;10.50;44.30;;;;;;5042926;28;20473;-83
2020/12/28 01:19:47;;;;;;;3.33;2.00;;;10.40;43.10;;;;;;5051115;28;20524;-83
2020/12/28 01:22:13;;;;;;;2.30;2.10;;;10.10;45.10;;;;;;5050616;28;20503;-83
2020/12/28 01:24:39;;;;;;;4.93;2.57;;;9.90;45.30;;;;;;5051480;28;20437;-83
2020/12/28 01:27:06;;;;;;;2.00;1.90;;;9.80;45.50;;;;;;5044828;28;20446;-83
2020/12/28 01:29:32;;;;;;;2.20;2.00;;;9.30;46.30;;;;;;5036893;28;20484;-83
2020/12/28 01:32:00;;;;;;;4.30;1.90;;;9.50;46.80;;;;;;5036699;28;20445;-83
2020/12/28 01:34:26;;;;;;;2.30;2.10;;;9.20;47.80;;;;;;5036733;28;20484;-83
2020/12/28 01:36:53;;;;;;;2.17;1.93;;;9.40;48.10;;;;;;5036507;28;20430;-83
2020/12/28 01:39:19;;;;;;;2.57;1.90;;;9.40;46.80;;;;;;5035705;28;20892;-83
2020/12/28 01:41:46;;;;;;;1.90;1.80;;;9.50;47.00;;;;;;5035730;28;20850;-83
2020/12/28 01:44:12;;;;;;;2.07;1.93;;;9.80;45.70;;;;;;5035706;28;20461;-83
2020/12/28 01:46:39;;;;;;;2.77;2.10;;;9.30;46.00;;;;;;5035532;28;20437;-83
2020/12/28 01:49:06;;;;;;;2.30;2.03;;;9.30;46.30;;;;;;5035306;28;21029;-83
2020/12/28 01:51:33;;;;;;;1.90;1.80;;;9.10;46.40;;;;;;5035399;28;20431;-83
2020/12/28 01:54:00;;;;;;;5.10;1.70;;;9.00;48.20;;;;;;5035595;28;20456;-83
2020/12/28 01:56:28;;;;;;;2.00;1.83;;;9.30;46.70;;;;;;5035328;28;20439;-83
2020/12/28 01:58:55;;;;;;;1.83;1.80;;;8.80;47.10;;;;;;5035122;28;20560;-83
2020/12/28 02:01:26;;;;;;;2.27;1.90;;;8.60;47.50;;;;;;5035203;28;20547;-83
2020/12/28 02:03:52;;;;;;;1.83;1.80;;;8.90;46.50;;;;;;5036153;28;20429;-83
2020/12/28 02:06:20;;;;;;;3.47;2.20;;;8.80;47.00;;;;;;5036391;28;20456;-83
2020/12/28 02:08:46;;;;;;;2.07;1.90;;;8.90;47.00;;;;;;5038905;28;20564;-83
2020/12/28 02:11:13;;;;;;;3.50;2.10;;;8.80;47.40;;;;;;5038351;28;20438;-83
2020/12/28 02:13:39;;;;;;;1.70;1.60;;;8.80;47.70;;;;;;5037167;28;20449;-83
2020/12/28 02:16:06;;;;;;;2.67;1.90;;;9.10;46.00;;;;;;5037177;28;20861;-83
2020/12/28 02:18:32;;;;;;;2.37;2.00;;;9.00;46.80;;;;;;5045188;28;20472;-83
2020/12/28 02:20:59;;;;;;;2.10;1.90;;;8.90;47.70;;;;;;5054765;28;20473;-83
2020/12/28 02:23:26;;;;;;;2.27;2.00;;;9.20;45.80;;;;;;5052329;28;20471;-83
2020/12/28 02:25:52;;;;;;;1.90;1.80;;;9.50;45.00;;;;;;5037222;28;20493;-83
2020/12/28 02:28:19;;;;;;;2.50;2.30;;;8.90;46.00;;;;;;5035832;28;20501;-83
2020/12/28 02:30:45;;;;;;;1.97;1.87;;;9.00;47.00;;;;;;5035409;28;20452;-83
2020/12/28 02:33:12;;;;;;;2.20;1.90;;;9.60;46.30;;;;;;5036365;28;20476;-83
2020/12/28 02:35:38;;;;;;;2.30;2.10;;;9.60;44.60;;;;;;5037137;28;20945;-83
2020/12/28 02:38:05;;;;;;;2.23;1.90;;;9.50;44.10;;;;;;5037171;28;20986;-83
2020/12/28 02:40:32;;;;;;;2.13;1.97;;;9.90;44.60;;;;;;5036702;28;20484;-83
2020/12/28 02:42:59;;;;;;;1.90;1.80;;;10.20;42.90;;;;;;5035534;28;21002;-83
2020/12/28 02:45:25;;;;;;;2.00;1.90;;;10.70;41.80;;;;;;5034496;28;20440;-83
2020/12/28 02:47:52;;;;;;;4.37;2.67;;;10.50;42.70;;;;;;5034674;28;21004;-83
2020/12/28 02:50:18;;;;;;;4.57;2.40;;;10.60;41.30;;;;;;5035699;28;20450;-83
2020/12/28 02:52:45;;;;;;;1.80;1.80;;;10.40;42.40;;;;;;5035395;28;20430;-83
2020/12/28 02:55:12;;;;;;;2.40;2.20;;;10.60;42.40;;;;;;5034944;28;20528;-83
2020/12/28 02:57:39;;;;;;;1.93;1.90;;;10.80;41.00;;;;;;5034527;28;20579;-83
2020/12/28 03:00:06;;;;;;;2.60;1.80;;;11.10;41.90;;;;;;5034237;28;20814;-84
2020/12/28 03:02:33;;;;;;;2.77;2.03;;;11.40;43.50;;;;;;5034773;28;20442;-84
2020/12/28 03:04:59;;;;;;;1.93;1.87;;;11.70;41.30;;;;;;5034437;28;20457;-83
2020/12/28 03:07:26;;;;;;;1.97;1.87;;;11.10;40.60;;;;;;5034775;28;20549;-83
2020/12/28 03:09:53;;;;;;;3.60;3.03;;;10.80;41.40;;;;;;5034211;28;20528;-83
2020/12/28 03:12:20;;;;;;;2.83;2.00;;;11.00;42.20;;;;;;5034236;28;20522;-84
2020/12/28 03:14:47;;;;;;;2.20;1.93;;;11.20;41.20;;;;;;5034045;28;20445;-84
2020/12/28 03:17:14;;;;;;;1.90;1.80;;;11.20;41.00;;;;;;5033714;28;20471;-84
2020/12/28 03:19:41;;;;;;;2.23;2.10;;;11.10;40.60;;;;;;5034218;28;20437;-84
2020/12/28 03:22:07;;;;;;;4.10;2.53;;;11.20;41.80;;;;;;5034459;28;20534;-84
2020/12/28 03:24:34;;;;;;;5.07;1.93;;;11.50;41.30;;;;;;5039137;28;20587;-84
2020/12/28 03:27:02;;;;;;;1.93;1.83;;;11.40;40.80;;;;;;5039289;28;20795;-84
2020/12/28 03:29:29;;;;;;;1.93;1.83;;;10.60;41.10;;;;;;5038897;28;20851;-84
2020/12/28 03:31:57;;;;;;;2.53;2.03;;;10.40;41.70;;;;;;5038455;28;20453;-84
2020/12/28 03:34:24;;;;;;;4.33;2.00;;;10.30;43.30;;;;;;5038021;28;20456;-84
2020/12/28 03:36:51;;;;;;;2.73;2.30;;;10.60;41.90;;;;;;5039151;28;20892;-84
2020/12/28 03:39:18;;;;;;;2.60;2.30;;;11.00;43.80;;;;;;5038747;28;20469;-84
2020/12/28 03:41:44;;;;;;;2.73;1.90;;;11.60;42.10;;;;;;5037732;28;20847;-84
2020/12/28 03:44:11;;;;;;;1.90;1.80;;;11.60;39.90;;;;;;5045166;28;20440;-84
2020/12/28 03:46:37;;;;;;;2.20;2.10;;;12.00;42.40;;;;;;5039701;28;20479;-84
2020/12/28 03:49:05;;;;;;;2.20;2.00;;;12.20;41.30;;;;;;5037217;28;20460;-84
2020/12/28 03:51:31;;;;;;;2.00;1.90;;;12.40;41.40;;;;;;5037571;28;20532;-84
2020/12/28 03:53:58;;;;;;;1.93;1.90;;;12.60;41.30;;;;;;5037658;28;20502;-84
2020/12/28 03:56:24;;;;;;;4.07;2.10;;;12.80;42.00;;;;;;5037605;28;20502;-84
2020/12/28 03:58:50;;;;;;;2.80;2.23;;;12.90;38.10;;;;;;5037605;28;20467;-84
2020/12/28 04:01:17;;;;;;;4.17;2.00;;;12.90;41.00;;;;;;5037005;28;21060;-84
2020/12/28 04:03:43;;;;;;;3.90;2.37;;;13.10;40.30;;;;;;5037245;28;20602;-84
2020/12/28 04:06:11;;;;;;;2.37;2.10;;;13.20;38.40;;;;;;5037322;28;20475;-84
2020/12/28 04:08:37;;;;;;;4.70;3.30;;;13.00;39.50;;;;;;5037640;28;20464;-84
2020/12/28 04:11:04;;;;;;;6.13;2.50;;;12.90;40.30;;;;;;5037550;28;20540;-84
2020/12/28 04:13:30;;;;;;;6.23;3.57;;;12.90;40.50;;;;;;5036927;28;20478;-84
2020/12/28 04:15:58;;;;;;;5.40;3.20;;;12.70;40.50;;;;;;5037243;28;20540;-84
2020/12/28 04:18:25;;;;;;;5.00;3.03;;;12.70;40.10;;;;;;5037698;28;20465;-84
2020/12/28 04:20:51;;;;;;;4.20;2.13;;;12.20;38.50;;;;;;5037455;28;20512;-84
2020/12/28 04:23:19;;;;;;;2.47;2.33;;;11.70;40.70;;;;;;5037663;28;20496;-84
2020/12/28 04:25:45;;;;;;;5.83;2.77;;;11.70;40.00;;;;;;5038770;28;20451;-84
2020/12/28 04:28:12;;;;;;;3.80;2.47;;;11.50;40.20;;;;;;5038924;28;20466;-84
2020/12/28 04:30:38;;;;;;;3.80;2.40;;;11.20;42.00;;;;;;5037740;28;20923;-84
2020/12/28 04:33:05;;;;;;;4.67;3.13;;;11.10;42.60;;;;;;5040714;28;20425;-84
2020/12/28 04:35:31;;;;;;;3.53;2.57;;;11.10;43.60;;;;;;5037147;28;20448;-84
2020/12/28 04:37:58;;;;;;;5.07;3.03;;;11.60;42.70;;;;;;5037801;28;20982;-84
2020/12/28 04:40:25;;;;;;;4.87;3.20;;;11.60;41.20;;;;;;5037919;28;20480;-84
2020/12/28 04:42:53;;;;;;;3.30;2.53;;;11.70;41.00;;;;;;5037288;28;20564;-84
2020/12/28 04:45:20;;;;;;;6.50;3.50;;;11.70;42.10;;;;;;5038136;28;20460;-84
2020/12/28 04:47:46;;;;;;;5.43;3.47;;;12.00;43.10;;;;;;5037926;28;20469;-84
2020/12/28 04:50:14;;;;;;;2.80;2.30;;;12.30;41.90;;;;;;5037542;28;20974;-84
2020/12/28 04:52:41;;;;;;;2.50;2.30;;;12.30;41.80;;;;;;5037371;28;20477;-84
2020/12/28 04:55:07;;;;;;;4.53;2.40;;;12.20;40.70;;;;;;5036737;28;20445;-84
2020/12/28 04:57:34;;;;;;;2.43;1.90;;;12.00;40.90;;;;;;5036839;28;20501;-84
2020/12/28 05:00:01;;;;;;;2.20;1.80;;;11.70;41.40;;;;;;5036439;28;20462;-84
2020/12/28 05:02:27;;;;;;;1.80;1.80;;;11.30;42.30;;;;;;5036421;28;20484;-84
2020/12/28 05:05:04;;;;;;;2.10;2.00;;;11.20;43.20;;;;;;5036205;28;20541;-84
2020/12/28 05:07:32;;;;;;;2.23;2.00;;;11.10;42.30;;;;;;5037764;28;20479;-84
2020/12/28 05:10:00;;;;;;;2.57;2.13;;;11.30;45.00;;;;;;5036895;28;20441;-84
2020/12/28 05:12:26;;;;;;;2.20;2.00;;;11.60;43.20;;;;;;5036804;28;20790;-84
2020/12/28 05:15:05;;;;;;;4.93;2.43;;;11.70;43.30;;;;;;5036875;28;20455;-85
2020/12/28 05:17:31;;;;;;;4.27;2.40;;;11.60;43.50;;;;;;5036047;28;20472;-85
2020/12/28 05:20:00;;;;;;;2.30;2.10;;;11.80;44.20;;;;;;5036141;28;20455;-85
2020/12/28 05:22:27;;;;;;;2.40;2.10;;;11.90;44.00;;;;;;5036150;28;20491;-85
2020/12/28 05:24:55;;;;;;;2.60;2.13;;;12.00;42.60;;;;;;5035803;28;20438;-84
2020/12/28 05:27:22;;;;;;;6.07;2.27;;;11.70;42.70;;;;;;5037077;28;20469;-84
2020/12/28 05:29:49;;;;;;;3.10;2.10;;;11.70;42.80;;;;;;5038621;28;20463;-85
2020/12/28 05:32:17;;;;;;;3.77;2.30;;;12.00;43.10;;;;;;5036434;28;20848;-85
2020/12/28 05:34:45;;;;;;;2.83;2.30;;;12.30;42.90;;;;;;5035930;28;20509;-85
2020/12/28 05:37:13;;;;;;;2.80;2.10;;;12.30;42.20;;;;;;5036254;28;20510;-85
2020/12/28 05:39:40;;;;;;;2.97;2.30;;;11.60;43.50;;;;;;5035433;28;20452;-85
2020/12/28 05:42:08;;;;;;;2.63;2.20;;;11.20;44.50;;;;;;5035164;28;20473;-85
2020/12/28 05:44:35;;;;;;;3.50;2.20;;;11.60;44.00;;;;;;5038300;28;20459;-85
2020/12/28 05:47:07;;;;;;;3.10;2.30;;;11.40;43.80;;;;;;5035115;28;20453;-85
2020/12/28 05:49:36;;;;;;;5.13;2.60;;;11.20;44.40;;;;;;5035309;28;20433;-85
2020/12/28 05:52:05;;;;;;;3.00;2.10;;;11.40;45.10;;;;;;5035432;28;20540;-84
2020/12/28 05:54:32;;;;;;;2.57;2.10;;;11.70;44.10;;;;;;5034781;28;20454;-84
2020/12/28 05:56:58;;;;;;;5.37;2.10;;;11.60;43.50;;;;;;5034420;28;20445;-84
2020/12/28 05:59:25;;;;;;;3.90;2.53;;;11.60;45.10;;;;;;5034747;28;20926;-84
2020/12/28 06:01:52;;;;;;;2.43;2.23;;;11.60;44.70;;;;;;5034926;28;20485;-84
2020/12/28 06:04:20;;;;;;;2.50;2.37;;;11.40;43.80;;;;;;5034481;28;20477;-84
2020/12/28 06:06:58;;;;;;;2.13;2.00;;;11.60;44.80;;;;;;5111604;27;20503;-82
2020/12/28 06:09:25;;;;;;;1.90;1.80;;;12.10;44.30;;;;;;5100401;28;20427;-82
2020/12/28 06:12:02;;;;;;;4.37;1.90;;;12.30;44.00;;;;;;5109606;28;20438;-82
2020/12/28 06:14:33;;;;;;;4.63;2.00;;;12.30;43.40;;;;;;5108661;28;20426;-82
2020/12/28 06:17:05;;;;;;;2.43;2.23;;;12.50;42.40;;;;;;5109687;28;20431;-82
2020/12/28 06:19:31;;;;;;;3.63;2.60;;;12.40;44.00;;;;;;5096530;28;20445;-82
2020/12/28 06:21:59;;;;;;;3.13;2.20;;;12.40;43.50;;;;;;5091425;28;20796;-84
2020/12/28 06:24:30;;;;;;;3.30;2.10;;;12.60;43.90;;;;;;5091268;28;20586;-84
2020/12/28 06:27:07;;;;;;;2.20;2.00;;;12.40;42.30;;;;;;5091066;28;20467;-84
2020/12/28 06:29:35;;;;;;;2.27;2.07;;;12.00;42.90;;;;;;5091117;28;20502;-84
2020/12/28 06:32:12;;;;;;;2.53;2.40;;;11.90;44.30;;;;;;5091281;28;20831;-84
2020/12/28 06:34:39;;;;;;;2.50;2.20;;;12.20;44.40;;;;;;5105035;28;20462;-84
2020/12/28 06:37:07;;;;;;;3.50;2.27;;;12.20;43.00;;;;;;5104214;28;20457;-84
2020/12/28 06:39:34;;;;;;;5.33;2.00;;;12.20;44.60;;;;;;5097391;28;20455;-84
2020/12/28 06:42:08;;;;;;;2.73;2.17;;;12.30;43.60;;;;;;5091426;28;20880;-84
2020/12/28 06:44:34;;;;;;;2.17;1.90;;;12.20;45.30;;;;;;5090448;28;20980;-84
2020/12/28 06:47:02;;;;;;;1.93;1.83;;;12.00;44.60;;;;;;5090755;28;20904;-84
2020/12/28 06:49:38;;;;;;;5.00;2.27;;;12.40;44.30;;;;;;5090705;28;20457;-84
2020/12/28 06:52:06;;;;;;;2.33;2.20;;;12.30;44.10;;;;;;5090387;28;20434;-84
2020/12/28 06:54:32;;;;;;;2.70;2.20;;;12.00;42.40;;;;;;5090568;28;20433;-84
2020/12/28 06:57:02;;;;;;;3.60;2.20;;;11.70;43.40;;;;;;5090420;28;20545;-84
2020/12/28 06:59:29;;;;;;;5.93;2.20;;;11.60;43.60;;;;;;5090856;28;20444;-84
2020/12/28 07:01:56;;;;;;;2.00;1.90;;;11.50;43.20;;;;;;5090734;28;20818;-84
2020/12/28 07:04:24;;;;;;;3.87;1.93;;;11.30;43.80;;;;;;5091256;28;20443;-84
2020/12/28 07:06:57;;;;;;;4.13;2.20;;;11.30;46.10;;;;;;5091070;28;20488;-84
2020/12/28 07:09:24;;;;;;;5.97;2.20;;;11.60;44.10;;;;;;5090703;28;20476;-84
2020/12/28 07:11:51;;;;;;;3.87;2.00;;;11.80;44.20;;;;;;5090816;28;20454;-84
2020/12/28 07:14:19;;;;;;;14.97;2.70;;;12.00;44.90;;;;;;5090530;28;20442;-84
2020/12/28 07:16:46;;;;;;;2.63;2.37;;;12.30;43.10;;;;;;5085706;28;20459;-84
2020/12/28 07:19:13;;;;;;;2.90;2.67;;;12.30;44.40;;;;;;5077756;28;20458;-84
2020/12/28 07:21:39;;;;;;;5.33;3.43;;;12.30;44.70;;;;;;5076896;28;20459;-84
2020/12/28 07:24:09;;;;;;;3.37;2.30;;;12.20;44.70;;;;;;5076571;28;20505;-84
2020/12/28 07:26:37;;;;;;;3.73;2.33;;;12.20;44.60;;;;;;5077243;28;20482;-84
2020/12/28 07:29:11;;;;;;;2.70;2.47;;;12.10;44.30;;;;;;5077270;28;20464;-84
2020/12/28 07:31:38;;;;;;;3.33;2.57;;;11.70;44.10;;;;;;5077135;28;20438;-84
2020/12/28 07:34:05;;;;;;;2.33;2.17;;;11.60;45.00;;;;;;5076871;28;20487;-84
2020/12/28 07:36:35;;;;;;;2.60;2.40;;;11.20;46.40;;;;;;5077788;28;20441;-84
2020/12/28 07:39:02;;;;;;;2.47;2.10;;;10.90;45.90;;;;;;5076571;28;20463;-84
2020/12/28 07:41:29;;;;;;;3.10;2.70;;;11.10;46.50;;;;;;5076617;28;20804;-84
2020/12/28 07:43:58;;;;;;;5.40;2.83;;;11.30;46.10;;;;;;5076299;28;20452;-84
2020/12/28 07:46:49;;;;;;;2.67;2.53;;;11.40;46.60;;;;;;5076450;28;20574;-84
2020/12/28 07:49:21;;;;;;;3.87;2.70;;;11.60;44.50;;;;;;5076621;28;20885;-84
2020/12/28 07:51:51;;;;;;;2.57;2.00;;;11.40;45.70;;;;;;5077162;28;20447;-84
2020/12/28 07:54:22;;;;;;;2.00;1.90;;;11.40;47.10;;;;;;5076964;28;20453;-84
2020/12/28 07:56:51;;;;;;;10.23;2.30;;;10.20;45.90;;;;;;5076545;28;20882;-84
2020/12/28 07:59:49;;;;;;;2.20;2.00;;;9.10;49.80;;;;;;5076676;28;20468;-83
2020/12/28 08:02:33;;;;;;;4.83;2.40;;;9.60;50.90;;;;;;5078236;28;20471;-85
2020/12/28 08:05:01;;;;;;;2.40;2.20;;;10.20;49.90;;;;;;5077599;28;20538;-83
2020/12/28 08:07:34;;;;;;;3.13;2.37;;;10.60;47.60;;;;;;5077113;28;20468;-84
2020/12/28 08:10:01;;;;;;;2.60;2.30;;;10.50;47.80;;;;;;5077539;28;20439;-84
2020/12/28 08:12:30;;;;;;;2.20;2.10;;;10.80;46.50;;;;;;5078081;28;20535;-84
2020/12/28 08:14:58;;;;;;;2.47;2.27;;;10.90;47.20;;;;;;5076296;28;20995;-84
2020/12/28 08:17:25;;;;;;;3.50;2.50;;;11.40;44.80;;;;;;5076409;28;20474;-83
2020/12/28 08:19:52;;;;;;;2.23;2.00;;;11.10;45.90;;;;;;5076515;28;20526;-83
2020/12/28 08:22:22;;;;;;;2.47;2.10;;;11.30;47.00;;;;;;5076579;28;20482;-84
2020/12/28 08:24:59;;;;;;;4.07;2.83;;;11.60;45.10;;;;;;5077077;28;20504;-83
2020/12/28 08:27:28;;;;;;;3.57;2.30;;;11.10;45.70;;;;;;5076636;28;20471;-84
2020/12/28 08:29:55;;;;;;;4.57;3.47;;;11.60;47.10;;;;;;5076739;28;20459;-84
2020/12/28 08:32:26;;;;;;;6.23;2.70;;;11.50;44.80;;;;;;5077552;28;20448;-84
2020/12/28 08:34:55;;;;;;;3.40;2.80;;;11.30;45.10;;;;;;5077398;28;20497;-83
2020/12/28 08:37:21;;;;;;;2.80;2.57;;;11.00;45.20;;;;;;5076588;28;20468;-84
2020/12/28 08:39:48;;;;;;;4.53;2.17;;;11.10;46.80;;;;;;5076281;28;20517;-84
2020/12/28 08:42:25;;;;;;;2.67;2.30;;;11.20;46.20;;;;;;5076704;28;20451;-83
2020/12/28 08:44:51;;;;;;;4.70;2.70;;;11.60;45.50;;;;;;5076515;28;20424;-84
2020/12/28 08:47:18;;;;;;;4.50;2.97;;;10.90;45.90;;;;;;5078326;28;20452;-85
2020/12/28 08:49:48;;;;;;;5.27;2.83;;;11.40;46.00;;;;;;5077915;28;20444;-85
2020/12/28 08:52:15;;;;;;;3.80;2.97;;;11.70;44.40;;;;;;5075646;28;20475;-84
2020/12/28 08:54:43;;;;;;;7.00;3.17;;;11.40;44.90;;;;;;5075218;28;20442;-84
2020/12/28 08:57:19;;;;;;;18.10;9.90;;;11.10;46.00;;;;;;5075180;28;20526;-84
2020/12/28 08:59:45;;;;;;;11.93;7.50;;;11.10;46.10;;;;;;5074869;28;20452;-84
2020/12/28 09:02:16;;;;;;;7.50;4.50;;;11.00;45.60;;;;;;5074625;28;20468;-84
2020/12/28 09:04:42;;;;;;;5.90;3.70;;;11.10;47.00;;;;;;5074264;28;20773;-84
2020/12/28 09:07:10;;;;;;;4.00;3.83;;;10.60;46.00;;;;;;5075018;28;20439;-84
2020/12/28 09:09:38;;;;;;;12.00;5.80;;;10.60;47.00;;;;;;5074230;28;20575;-84
2020/12/28 09:12:05;;;;;;;4.23;3.30;;;10.80;47.80;;;;;;5074185;28;20526;-84
2020/12/28 09:14:31;;;;;;;3.80;3.13;;;10.90;47.50;;;;;;5074038;28;20450;-84
2020/12/28 09:16:58;;;;;;;4.77;3.50;;;11.10;46.00;;;;;;5074027;28;20514;-84
2020/12/28 09:19:24;;;;;;;3.37;2.97;;;11.00;45.70;;;;;;5074346;28;20523;-84
2020/12/28 09:21:52;;;;;;;5.63;3.40;;;10.00;46.30;;;;;;5073868;28;21016;-84
2020/12/28 09:24:19;;;;;;;4.50;3.50;;;10.00;47.50;;;;;;5073899;28;20436;-84
2020/12/28 09:26:45;;;;;;;4.70;3.37;;;10.30;48.20;;;;;;5073518;28;20485;-84
2020/12/28 09:29:12;;;;;;;7.50;5.73;;;10.20;46.80;;;;;;5073859;28;20457;-84
2020/12/28 09:31:38;;;;;;;4.97;3.60;;;10.70;47.70;;;;;;5073535;28;20438;-84
2020/12/28 09:34:05;;;;;;;7.60;5.80;;;10.40;46.50;;;;;;5073772;28;20453;-84
2020/12/28 09:36:31;;;;;;;6.40;5.20;;;10.30;46.60;;;;;;5073665;28;20477;-84
2020/12/28 09:38:58;;;;;;;9.40;3.80;;;10.50;46.40;;;;;;5073941;28;20461;-85
2020/12/28 09:41:25;;;;;;;5.43;4.70;;;9.90;48.20;;;;;;5073668;28;20448;-84
2020/12/28 09:43:52;;;;;;;4.70;4.10;;;10.40;48.10;;;;;;5074851;28;20483;-84
2020/12/28 09:46:20;;;;;;;7.07;6.33;;;10.50;46.00;;;;;;5077752;28;20479;-85
2020/12/28 09:48:46;;;;;;;11.30;6.60;;;10.20;46.30;;;;;;5077980;28;20484;-85
2020/12/28 09:51:13;;;;;;;7.53;4.63;;;10.40;46.50;;;;;;5077763;28;20443;-85
2020/12/28 09:53:40;;;;;;;8.00;4.37;;;10.60;47.20;;;;;;5076387;28;20474;-85
2020/12/28 09:56:06;;;;;;;11.40;5.33;;;11.00;45.80;;;;;;5074042;28;21019;-85
2020/12/28 09:58:34;;;;;;;6.53;4.80;;;10.90;45.40;;;;;;5073235;28;20562;-85
2020/12/28 10:01:01;;;;;;;6.70;5.10;;;10.80;45.40;;;;;;5073099;28;20451;-84
2020/12/28 10:03:27;;;;;;;7.73;4.30;;;11.30;45.70;;;;;;5073943;28;20455;-84
2020/12/28 10:05:54;;;;;;;5.03;3.90;;;11.10;44.80;;;;;;5073259;28;20483;-84
2020/12/28 10:08:22;;;;;;;6.33;4.80;;;11.60;44.60;;;;;;5073611;28;20479;-84
2020/12/28 10:10:48;;;;;;;7.73;4.03;;;11.40;42.90;;;;;;5072869;28;20538;-84
2020/12/28 10:13:15;;;;;;;7.50;5.90;;;11.70;45.80;;;;;;5073700;28;20455;-84
2020/12/28 10:15:42;;;;;;;12.20;8.10;;;12.00;42.70;;;;;;5073711;28;20467;-84
2020/12/28 10:18:39;;;;;;;4.73;4.00;;;11.40;43.50;;;;;;5073414;28;20460;-84
2020/12/28 10:21:08;;;;;;;6.47;4.80;;;11.10;45.50;;;;;;5073710;28;20432;-85
2020/12/28 10:23:35;;;;;;;9.67;6.83;;;11.30;44.90;;;;;;5072831;28;20466;-84
2020/12/28 10:26:01;;;;;;;20.73;11.20;;;11.70;43.80;;;;;;5073306;28;21061;-85
2020/12/28 10:28:28;;;;;;;33.57;14.47;;;11.90;43.80;;;;;;5072922;28;20552;-85
2020/12/28 10:30:55;;;;;;;10.50;6.47;;;11.80;43.30;;;;;;5073378;28;20447;-84
2020/12/28 10:33:21;;;;;;;8.23;5.80;;;11.90;43.80;;;;;;5073319;28;20461;-85
2020/12/28 10:35:48;;;;;;;5.47;4.50;;;11.70;43.80;;;;;;5073991;28;20439;-84
2020/12/28 10:38:14;;;;;;;7.07;5.23;;;11.60;44.00;;;;;;5073631;28;20467;-85
2020/12/28 10:40:41;;;;;;;6.23;4.50;;;11.30;45.10;;;;;;5072767;28;20447;-85
2020/12/28 10:43:07;;;;;;;6.30;4.57;;;11.20;43.60;;;;;;5073446;28;20460;-85
2020/12/28 10:45:34;;;;;;;6.90;3.70;;;11.40;43.90;;;;;;5073599;28;20484;-85
2020/12/28 10:48:01;;;;;;;4.10;3.47;;;10.90;44.20;;;;;;5076664;28;20526;-84
2020/12/28 10:50:27;;;;;;;5.67;3.40;;;10.80;46.00;;;;;;5084211;28;20486;-84
2020/12/28 10:52:54;;;;;;;5.00;3.90;;;10.90;45.70;;;;;;5086400;28;20454;-84
2020/12/28 10:55:21;;;;;;;4.47;3.50;;;10.90;44.70;;;;;;5078650;28;20808;-85
2020/12/28 10:57:48;;;;;;;4.43;3.23;;;11.30;47.10;;;;;;5077000;28;20464;-85
2020/12/28 11:00:14;;;;;;;6.53;3.67;;;11.50;43.90;;;;;;5087305;28;20458;-85
2020/12/28 11:02:41;;;;;;;4.17;3.00;;;11.90;46.50;;;;;;5089187;28;20480;-85
2020/12/28 11:05:08;;;;;;;4.70;3.57;;;11.60;42.40;;;;;;5090111;28;20447;-85
2020/12/28 11:07:34;;;;;;;5.30;3.30;;;11.00;44.30;;;;;;5089581;28;20460;-85
2020/12/28 11:10:01;;;;;;;2.90;2.70;;;11.30;44.80;;;;;;5084696;28;20447;-85
2020/12/28 11:12:27;;;;;;;2.93;2.77;;;11.60;45.80;;;;;;5089340;28;20450;-85
2020/12/28 11:14:54;;;;;;;6.03;3.00;;;11.20;42.00;;;;;;5084667;28;20455;-85
2020/12/28 11:17:20;;;;;;;3.83;3.63;;;10.50;45.60;;;;;;5083308;28;20476;-85
2020/12/28 11:19:47;;;;;;;3.70;3.20;;;10.50;43.60;;;;;;5084475;28;20439;-85
2020/12/28 11:22:14;;;;;;;5.77;3.23;;;10.90;44.60;;;;;;5081516;28;20909;-85
2020/12/28 11:24:40;;;;;;;5.37;2.97;;;10.60;43.10;;;;;;5077631;28;20522;-85
2020/12/28 11:27:07;;;;;;;4.97;2.80;;;10.60;43.90;;;;;;5077763;28;20629;-85
2020/12/28 11:29:33;;;;;;;4.43;3.37;;;10.30;43.70;;;;;;5079469;28;20454;-85
2020/12/28 11:32:00;;;;;;;4.90;3.13;;;9.80;45.90;;;;;;5085537;28;20453;-85
2020/12/28 11:34:26;;;;;;;9.07;4.97;;;9.40;46.50;;;;;;5085943;28;20458;-84
2020/12/28 11:36:52;;;;;;;13.47;7.90;;;9.50;47.90;;;;;;5084628;28;20490;-84
2020/12/28 11:39:20;;;;;;;5.40;3.53;;;9.70;46.90;;;;;;5090434;28;20987;-84
2020/12/28 11:41:46;;;;;;;5.43;2.80;;;10.00;43.60;;;;;;5088534;28;20450;-84
2020/12/28 11:44:14;;;;;;;3.13;2.73;;;10.10;44.60;;;;;;5087775;28;20435;-84
2020/12/28 11:46:42;;;;;;;2.80;2.63;;;10.10;46.20;;;;;;5094466;28;20534;-85
2020/12/28 11:49:08;;;;;;;2.60;2.40;;;9.80;45.60;;;;;;5089928;28;20460;-85
2020/12/28 11:51:37;;;;;;;2.97;2.67;;;10.00;44.80;;;;;;5091792;28;20475;-85
2020/12/28 11:54:03;;;;;;;2.53;2.30;;;10.00;44.40;;;;;;5090079;28;20439;-84
2020/12/28 11:56:35;;;;;;;2.53;2.43;;;9.80;46.50;;;;;;5084892;28;20440;-84
2020/12/28 11:59:01;;;;;;;2.63;2.50;;;9.50;46.70;;;;;;5096854;28;20475;-84
2020/12/28 12:01:28;;;;;;;3.20;2.63;;;9.80;45.20;;;;;;5097652;28;20510;-84
2020/12/28 12:03:54;;;;;;;6.03;4.10;;;9.60;47.40;;;;;;5088429;28;20437;-85
2020/12/28 12:06:22;;;;;;;2.93;2.70;;;9.80;46.70;;;;;;5092486;28;20479;-85
2020/12/28 12:11:36;;;;;;;3.40;2.90;;;9.90;45.60;;;;;;5083898;28;20419;-85
2020/12/28 12:14:02;;;;;;;3.10;2.53;;;10.20;45.60;;;;;;5079159;28;20576;-85
2020/12/28 12:16:29;;;;;;;3.50;2.50;;;10.00;43.70;;;;;;5077882;28;20467;-85
2020/12/28 12:18:56;;;;;;;4.03;2.90;;;9.60;47.20;;;;;;5077344;28;20452;-85
2020/12/28 12:21:23;;;;;;;3.20;2.90;;;9.60;47.20;;;;;;5077248;28;20438;-85
2020/12/28 12:23:49;;;;;;;2.57;2.40;;;9.80;45.20;;;;;;5077113;28;20439;-84
2020/12/28 12:26:19;;;;;;;6.87;3.67;;;10.30;45.40;;;;;;5076421;28;20570;-85
2020/12/28 12:28:46;;;;;;;4.53;2.73;;;10.30;44.30;;;;;;5076763;28;20477;-85
2020/12/28 12:31:14;;;;;;;3.70;2.93;;;10.10;45.20;;;;;;5076991;28;20573;-85
2020/12/28 12:33:41;;;;;;;2.77;2.60;;;10.40;45.40;;;;;;5077186;28;20439;-85
2020/12/28 12:36:07;;;;;;;4.00;2.93;;;10.80;44.50;;;;;;5076089;28;20440;-85
2020/12/28 12:38:34;;;;;;;3.40;2.80;;;10.60;42.80;;;;;;5076070;28;20494;-85
2020/12/28 12:41:00;;;;;;;3.00;2.70;;;10.30;45.30;;;;;;5080878;28;20483;-85
2020/12/28 12:43:27;;;;;;;3.40;2.70;;;10.00;45.10;;;;;;5075168;28;20440;-85
2020/12/28 12:45:54;;;;;;;3.93;2.70;;;9.90;46.60;;;;;;5074910;28;20574;-85
2020/12/28 12:48:21;;;;;;;5.83;2.60;;;9.80;47.30;;;;;;5074514;28;20467;-86
2020/12/28 12:50:48;;;;;;;4.67;3.10;;;10.10;47.00;;;;;;5075123;28;20489;-86
2020/12/28 12:53:15;;;;;;;2.73;2.50;;;9.90;47.00;;;;;;5074684;28;20454;-85